Time;durP1;ratioP1;P1;durP2;ratioP2;P2;SDS_P1;SDS_P2;PMS_P1;PMS_P2;Temp;Humidity;BMP_temperature;BMP_pressure;BME280_temperature;BME280_humidity;BME280_pressure;Samples;Min_cycle;Max_cycle;Signal;HPM_P1;HPM_P2
2021/03/03 00:00:17;;;;;;;4.69;3.83;;;;;;;18.98;44.46;101806.17;;;;-65
2021/03/03 00:03:17;;;;;;;6.23;4.18;;;;;;;18.95;44.45;101805.29;;;;-65
2021/03/03 00:06:17;;;;;;;4.45;4.05;;;;;;;18.94;44.50;101800.84;;;;-65
2021/03/03 00:09:17;;;;;;;4.69;4.21;;;;;;;18.92;44.49;101798.19;;;;-65
2021/03/03 00:12:17;;;;;;;4.29;3.85;;;;;;;18.90;44.50;101802.11;;;;-66
2021/03/03 00:15:17;;;;;;;4.68;4.23;;;;;;;18.88;44.54;101802.46;;;;-64
2021/03/03 00:18:17;;;;;;;4.45;4.05;;;;;;;18.86;44.50;101805.23;;;;-65
2021/03/03 00:21:17;;;;;;;4.24;3.84;;;;;;;18.84;44.47;101806.23;;;;-65
2021/03/03 00:24:17;;;;;;;4.79;4.07;;;;;;;18.82;44.52;101806.73;;;;-64
2021/03/03 00:27:17;;;;;;;4.35;3.95;;;;;;;18.80;44.56;101806.71;;;;-66
2021/03/03 00:30:17;;;;;;;4.35;3.95;;;;;;;18.78;44.52;101808.20;;;;-65
2021/03/03 00:33:17;;;;;;;4.79;3.85;;;;;;;18.75;44.53;101801.63;;;;-65
2021/03/03 00:36:17;;;;;;;4.62;3.84;;;;;;;18.74;44.56;101797.06;;;;-65
2021/03/03 00:39:17;;;;;;;4.06;3.66;;;;;;;18.72;44.57;101797.01;;;;-66
2021/03/03 00:42:17;;;;;;;4.25;3.85;;;;;;;18.71;44.51;101795.82;;;;-65
2021/03/03 00:45:17;;;;;;;4.37;3.97;;;;;;;18.69;44.57;101790.48;;;;-65
2021/03/03 00:48:17;;;;;;;4.39;3.99;;;;;;;18.67;44.58;101785.63;;;;-67
2021/03/03 00:51:17;;;;;;;4.29;3.89;;;;;;;18.65;44.59;101791.09;;;;-65
2021/03/03 00:54:17;;;;;;;4.70;4.03;;;;;;;18.63;44.61;101800.20;;;;-65
2021/03/03 00:57:17;;;;;;;4.31;3.81;;;;;;;18.62;44.61;101803.26;;;;-65
2021/03/03 01:00:17;;;;;;;4.17;3.77;;;;;;;18.60;44.62;101799.87;;;;-65
2021/03/03 01:03:17;;;;;;;4.37;3.97;;;;;;;18.58;44.60;101790.80;;;;-65
2021/03/03 01:06:17;;;;;;;4.59;4.03;;;;;;;18.57;44.61;101792.81;;;;-65
2021/03/03 01:09:17;;;;;;;4.45;4.05;;;;;;;18.56;44.58;101798.60;;;;-65
2021/03/03 01:12:17;;;;;;;4.73;4.09;;;;;;;18.54;44.60;101798.80;;;;-64
2021/03/03 01:15:17;;;;;;;4.81;4.00;;;;;;;18.52;44.63;101790.36;;;;-65
2021/03/03 01:18:17;;;;;;;4.32;3.92;;;;;;;18.51;44.62;101794.49;;;;-64
2021/03/03 01:21:17;;;;;;;4.40;4.00;;;;;;;18.50;44.60;101799.16;;;;-65
2021/03/03 01:24:17;;;;;;;4.45;4.05;;;;;;;18.48;44.59;101799.00;;;;-65
2021/03/03 01:27:17;;;;;;;4.81;4.31;;;;;;;18.46;44.61;101792.53;;;;-64
2021/03/03 01:30:17;;;;;;;4.31;3.91;;;;;;;18.45;44.63;101796.81;;;;-65
2021/03/03 01:33:17;;;;;;;4.59;4.06;;;;;;;18.44;44.64;101794.97;;;;-64
2021/03/03 01:36:17;;;;;;;4.43;4.03;;;;;;;18.43;44.64;101791.59;;;;-65
2021/03/03 01:39:17;;;;;;;4.61;4.20;;;;;;;18.41;44.61;101793.44;;;;-64
2021/03/03 01:42:17;;;;;;;4.51;4.06;;;;;;;18.40;44.56;101790.30;;;;-65
2021/03/03 01:45:17;;;;;;;4.31;3.89;;;;;;;18.39;44.60;101786.06;;;;-65
2021/03/03 01:48:17;;;;;;;4.83;4.01;;;;;;;18.38;44.64;101787.64;;;;-65
2021/03/03 01:51:17;;;;;;;4.50;4.01;;;;;;;18.37;44.62;101786.31;;;;-65
2021/03/03 01:54:17;;;;;;;5.41;4.08;;;;;;;18.35;44.65;101793.41;;;;-64
2021/03/03 01:57:17;;;;;;;4.73;4.26;;;;;;;18.33;44.65;101790.82;;;;-64
2021/03/03 02:00:17;;;;;;;4.57;4.15;;;;;;;18.34;44.67;101791.55;;;;-64
2021/03/03 02:03:17;;;;;;;4.37;3.95;;;;;;;18.31;44.65;101789.70;;;;-64
2021/03/03 02:06:17;;;;;;;4.24;3.84;;;;;;;18.30;44.69;101786.69;;;;-64
2021/03/03 02:09:17;;;;;;;4.41;4.01;;;;;;;18.28;44.67;101779.31;;;;-58
2021/03/03 02:12:17;;;;;;;4.90;3.81;;;;;;;18.27;44.67;101775.45;;;;-57
2021/03/03 02:15:17;;;;;;;4.42;4.02;;;;;;;18.26;44.69;101770.24;;;;-57
2021/03/03 02:18:17;;;;;;;4.38;3.98;;;;;;;18.25;44.67;101772.45;;;;-57
2021/03/03 02:21:17;;;;;;;4.17;3.77;;;;;;;18.24;44.60;101770.70;;;;-58
2021/03/03 02:24:17;;;;;;;4.47;4.07;;;;;;;18.23;44.66;101776.05;;;;-66
2021/03/03 02:27:17;;;;;;;4.29;3.89;;;;;;;18.22;44.64;101778.91;;;;-66
2021/03/03 02:30:17;;;;;;;4.24;3.84;;;;;;;18.21;44.60;101771.36;;;;-66
2021/03/03 02:33:17;;;;;;;4.43;4.03;;;;;;;18.19;44.65;101763.17;;;;-65
2021/03/03 02:36:17;;;;;;;4.28;3.88;;;;;;;18.18;44.74;101754.14;;;;-65
2021/03/03 02:39:17;;;;;;;4.26;3.86;;;;;;;18.17;44.65;101748.18;;;;-66
2021/03/03 02:42:17;;;;;;;4.32;3.92;;;;;;;18.16;44.67;101752.47;;;;-66
2021/03/03 02:45:17;;;;;;;4.56;3.83;;;;;;;18.15;44.71;101763.53;;;;-65
2021/03/03 02:48:17;;;;;;;4.81;4.10;;;;;;;18.14;44.70;101765.78;;;;-65
2021/03/03 02:51:17;;;;;;;4.33;3.93;;;;;;;18.13;44.71;101760.61;;;;-64
2021/03/03 02:54:17;;;;;;;3.97;3.55;;;;;;;18.12;44.72;101762.14;;;;-66
2021/03/03 02:57:17;;;;;;;4.30;3.89;;;;;;;18.11;44.75;101761.70;;;;-66
2021/03/03 03:00:17;;;;;;;4.35;3.95;;;;;;;18.10;44.78;101754.77;;;;-66
2021/03/03 03:03:17;;;;;;;4.05;3.66;;;;;;;18.09;44.73;101750.27;;;;-65
2021/03/03 03:06:17;;;;;;;4.09;3.69;;;;;;;18.08;44.77;101755.03;;;;-66
2021/03/03 03:09:17;;;;;;;4.21;3.81;;;;;;;18.07;44.75;101754.70;;;;-65
2021/03/03 03:12:17;;;;;;;4.41;4.00;;;;;;;18.07;44.71;101756.86;;;;-66
2021/03/03 03:15:17;;;;;;;4.17;3.77;;;;;;;18.06;44.81;101757.72;;;;-66
2021/03/03 03:18:17;;;;;;;4.19;3.77;;;;;;;18.05;44.76;101752.52;;;;-67
2021/03/03 03:21:17;;;;;;;4.27;3.87;;;;;;;18.04;44.84;101745.08;;;;-57
2021/03/03 03:24:17;;;;;;;4.19;3.79;;;;;;;18.02;44.79;101750.77;;;;-57
2021/03/03 03:27:17;;;;;;;3.99;3.66;;;;;;;18.02;44.80;101761.16;;;;-56
2021/03/03 03:30:17;;;;;;;4.21;3.83;;;;;;;18.01;44.78;101771.73;;;;-57
2021/03/03 03:33:17;;;;;;;4.20;3.80;;;;;;;18.01;44.86;101775.14;;;;-57
2021/03/03 03:36:17;;;;;;;4.10;3.70;;;;;;;18.00;44.87;101774.64;;;;-57
2021/03/03 03:39:17;;;;;;;4.10;3.70;;;;;;;17.99;44.79;101775.31;;;;-57
2021/03/03 03:42:17;;;;;;;4.19;3.79;;;;;;;17.98;44.84;101776.76;;;;-57
2021/03/03 03:45:17;;;;;;;4.20;3.80;;;;;;;17.96;44.88;101773.86;;;;-57
2021/03/03 03:48:17;;;;;;;4.25;3.79;;;;;;;17.95;44.89;101768.73;;;;-57
2021/03/03 03:51:17;;;;;;;4.68;3.81;;;;;;;17.94;44.79;101768.44;;;;-57
2021/03/03 03:54:17;;;;;;;4.11;3.71;;;;;;;17.94;44.90;101777.67;;;;-57
2021/03/03 03:57:17;;;;;;;4.25;3.85;;;;;;;17.93;44.87;101785.20;;;;-57
2021/03/03 04:00:17;;;;;;;4.05;3.64;;;;;;;17.93;44.91;101782.08;;;;-57
2021/03/03 04:03:17;;;;;;;4.07;3.68;;;;;;;17.91;44.88;101777.59;;;;-56
2021/03/03 04:06:17;;;;;;;3.93;3.62;;;;;;;17.91;44.85;101771.27;;;;-57
2021/03/03 04:09:17;;;;;;;4.29;3.89;;;;;;;17.90;44.84;101771.88;;;;-57
2021/03/03 04:12:17;;;;;;;3.99;3.63;;;;;;;17.89;44.94;101772.73;;;;-56
2021/03/03 04:15:17;;;;;;;3.83;3.53;;;;;;;17.89;44.89;101772.98;;;;-57
2021/03/03 04:18:17;;;;;;;4.12;3.72;;;;;;;17.88;44.88;101779.19;;;;-57
2021/03/03 04:21:17;;;;;;;3.85;3.49;;;;;;;17.87;44.90;101786.78;;;;-57
2021/03/03 04:24:17;;;;;;;4.06;3.66;;;;;;;17.86;44.95;101784.05;;;;-57
2021/03/03 04:27:17;;;;;;;3.85;3.48;;;;;;;17.85;44.93;101783.06;;;;-57
2021/03/03 04:30:17;;;;;;;3.91;3.54;;;;;;;17.85;44.91;101786.22;;;;-57
2021/03/03 04:33:17;;;;;;;4.14;3.74;;;;;;;17.83;44.87;101782.27;;;;-57
2021/03/03 04:36:17;;;;;;;4.03;3.63;;;;;;;17.83;44.90;101777.55;;;;-57
2021/03/03 04:39:17;;;;;;;4.05;3.57;;;;;;;17.82;44.86;101772.30;;;;-57
2021/03/03 04:42:17;;;;;;;4.39;3.99;;;;;;;17.81;44.90;101765.22;;;;-57
2021/03/03 04:45:17;;;;;;;4.07;3.67;;;;;;;17.81;44.95;101776.72;;;;-57
2021/03/03 04:48:17;;;;;;;3.90;3.60;;;;;;;17.80;44.95;101774.41;;;;-56
2021/03/03 04:51:17;;;;;;;4.18;3.77;;;;;;;17.79;44.86;101774.14;;;;-57
2021/03/03 04:54:17;;;;;;;3.98;3.60;;;;;;;17.79;44.92;101772.19;;;;-57
2021/03/03 04:57:17;;;;;;;3.91;3.52;;;;;;;17.78;44.94;101770.36;;;;-57
2021/03/03 05:00:17;;;;;;;3.97;3.60;;;;;;;17.77;44.88;101770.02;;;;-57
2021/03/03 05:03:17;;;;;;;4.04;3.65;;;;;;;17.76;44.87;101773.87;;;;-57
2021/03/03 05:06:17;;;;;;;4.04;3.64;;;;;;;17.75;44.94;101775.14;;;;-56
2021/03/03 05:09:17;;;;;;;3.93;3.54;;;;;;;17.76;44.97;101776.70;;;;-56
2021/03/03 05:12:17;;;;;;;4.83;3.67;;;;;;;17.75;44.97;101774.00;;;;-57
2021/03/03 05:15:18;;;;;;;3.98;3.65;;;;;;;17.74;44.93;101780.12;;;;-57
2021/03/03 05:18:17;;;;;;;4.03;3.63;;;;;;;17.73;44.90;101791.85;;;;-57
2021/03/03 05:21:17;;;;;;;4.03;3.63;;;;;;;17.73;44.87;101792.19;;;;-56
2021/03/03 05:24:17;;;;;;;4.21;3.62;;;;;;;17.72;44.92;101784.38;;;;-57
2021/03/03 05:27:17;;;;;;;3.83;3.41;;;;;;;17.71;44.92;101774.75;;;;-57
2021/03/03 05:30:17;;;;;;;9.82;3.79;;;;;;;17.70;45.10;101775.52;;;;-52
2021/03/03 05:33:16;;;;;;;4.77;4.08;;;;;;;17.66;44.40;101778.58;;;;-53
2021/03/03 05:36:17;;;;;;;8.42;4.57;;;;;;;17.64;44.47;101771.86;;;;-53
2021/03/03 05:39:17;;;;;;;6.34;4.65;;;;;;;17.63;44.33;101770.83;;;;-53
2021/03/03 05:42:17;;;;;;;5.26;4.64;;;;;;;17.64;44.36;101776.55;;;;-53
2021/03/03 05:45:17;;;;;;;6.23;4.48;;;;;;;17.64;44.47;101780.65;;;;-53
2021/03/03 05:48:17;;;;;;;5.90;4.44;;;;;;;17.64;44.46;101776.92;;;;-53
2021/03/03 05:51:17;;;;;;;5.43;4.13;;;;;;;17.64;44.59;101774.32;;;;-64
2021/03/03 05:54:17;;;;;;;4.99;4.21;;;;;;;17.63;44.58;101771.72;;;;-64
2021/03/03 05:57:17;;;;;;;7.69;4.25;;;;;;;17.63;44.69;101773.33;;;;-53
2021/03/03 06:00:17;;;;;;;4.59;4.18;;;;;;;17.63;44.73;101772.36;;;;-53
2021/03/03 06:03:17;;;;;;;8.87;4.63;;;;;;;17.61;44.64;101780.08;;;;-52
2021/03/03 06:06:17;;;;;;;11.41;6.89;;;;;;;17.38;43.32;101768.90;;;;-52
2021/03/03 06:09:18;;;;;;;10.38;8.17;;;;;;;17.25;42.80;101764.20;;;;-48
2021/03/03 06:12:17;;;;;;;10.16;8.41;;;;;;;17.12;42.78;101763.30;;;;-47
2021/03/03 06:15:17;;;;;;;11.53;8.35;;;;;;;17.16;43.32;101759.98;;;;-51
2021/03/03 06:18:17;;;;;;;10.84;7.80;;;;;;;17.23;43.57;101761.16;;;;-52
2021/03/03 06:21:17;;;;;;;10.12;6.83;;;;;;;17.29;43.64;101761.05;;;;-52
2021/03/03 06:24:16;;;;;;;8.57;6.99;;;;;;;17.34;43.67;101766.06;;;;-62
2021/03/03 06:27:17;;;;;;;8.29;6.54;;;;;;;17.39;43.81;101769.11;;;;-51
2021/03/03 06:30:17;;;;;;;6.84;6.13;;;;;;;17.43;43.82;101769.90;;;;-57
2021/03/03 06:33:16;;;;;;;8.67;5.99;;;;;;;17.47;43.95;101779.13;;;;-58
2021/03/03 06:36:17;;;;;;;6.31;5.68;;;;;;;17.50;44.09;101781.81;;;;-58
2021/03/03 06:39:17;;;;;;;7.28;5.72;;;;;;;17.54;44.10;101777.58;;;;-51
2021/03/03 06:42:16;;;;;;;6.05;5.34;;;;;;;17.59;44.12;101785.44;;;;-52
2021/03/03 06:45:17;;;;;;;7.33;5.53;;;;;;;17.63;44.23;101786.55;;;;-51
2021/03/03 06:48:17;;;;;;;6.57;5.28;;;;;;;17.68;44.29;101785.98;;;;-51
2021/03/03 06:51:17;;;;;;;6.14;4.93;;;;;;;17.74;44.21;101797.09;;;;-58
2021/03/03 06:54:17;;;;;;;5.44;4.81;;;;;;;17.79;44.24;101797.49;;;;-51
2021/03/03 06:57:16;;;;;;;5.26;4.62;;;;;;;17.84;44.32;101797.84;;;;-52
2021/03/03 07:00:17;;;;;;;5.44;4.59;;;;;;;17.87;44.26;101804.22;;;;-51
2021/03/03 07:03:17;;;;;;;5.08;4.44;;;;;;;17.92;44.49;101808.98;;;;-53
2021/03/03 07:06:16;;;;;;;5.61;4.75;;;;;;;17.96;44.38;101804.42;;;;-58
2021/03/03 07:09:17;;;;;;;5.37;4.74;;;;;;;18.00;44.49;101805.38;;;;-52
2021/03/03 07:12:17;;;;;;;5.09;4.53;;;;;;;18.02;44.44;101812.98;;;;-51
2021/03/03 07:15:16;;;;;;;6.56;4.55;;;;;;;18.04;44.48;101808.35;;;;-52
2021/03/03 07:18:17;;;;;;;5.59;4.37;;;;;;;18.05;44.55;101808.01;;;;-52
2021/03/03 07:21:17;;;;;;;5.74;4.38;;;;;;;18.07;44.52;101814.85;;;;-52
2021/03/03 07:24:17;;;;;;;4.79;4.15;;;;;;;18.08;44.57;101808.50;;;;-60
2021/03/03 07:27:17;;;;;;;4.85;4.33;;;;;;;18.09;44.54;101796.27;;;;-59
2021/03/03 07:30:17;;;;;;;5.03;4.36;;;;;;;18.11;44.56;101801.04;;;;-63
2021/03/03 07:33:17;;;;;;;4.29;3.89;;;;;;;18.11;44.53;101803.39;;;;-52
2021/03/03 07:36:17;;;;;;;5.23;3.91;;;;;;;18.12;44.58;101793.37;;;;-62
2021/03/03 07:39:16;;;;;;;4.51;4.09;;;;;;;18.12;44.56;101793.54;;;;-64
2021/03/03 07:42:17;;;;;;;4.37;3.97;;;;;;;18.12;44.56;101798.89;;;;-63
2021/03/03 07:45:17;;;;;;;4.23;3.82;;;;;;;18.13;44.52;101801.26;;;;-52
2021/03/03 07:48:16;;;;;;;4.52;4.05;;;;;;;18.12;44.57;101791.42;;;;-52
2021/03/03 07:51:17;;;;;;;4.10;3.70;;;;;;;18.12;44.50;101784.21;;;;-63
2021/03/03 07:54:17;;;;;;;4.19;3.79;;;;;;;18.12;44.60;101788.84;;;;-63
2021/03/03 07:57:17;;;;;;;4.43;3.99;;;;;;;18.11;44.54;101792.52;;;;-63
2021/03/03 08:00:17;;;;;;;4.04;3.63;;;;;;;18.11;44.38;101800.16;;;;-52
2021/03/03 08:03:17;;;;;;;4.11;3.70;;;;;;;18.11;44.41;101803.63;;;;-51
2021/03/03 08:06:16;;;;;;;4.20;3.80;;;;;;;18.10;44.50;101801.75;;;;-51
2021/03/03 08:09:18;;;;;;;4.37;3.97;;;;;;;18.10;44.44;101803.37;;;;-51
2021/03/03 08:12:17;;;;;;;4.19;3.79;;;;;;;18.10;44.42;101812.21;;;;-51
2021/03/03 08:15:17;;;;;;;4.45;4.01;;;;;;;18.09;44.43;101804.14;;;;-52
2021/03/03 08:18:17;;;;;;;4.12;3.72;;;;;;;18.08;44.42;101807.85;;;;-52
2021/03/03 08:21:16;;;;;;;4.11;3.71;;;;;;;18.08;44.51;101810.27;;;;-58
2021/03/03 08:24:16;;;;;;;4.57;3.97;;;;;;;18.07;44.42;101813.11;;;;-64
2021/03/03 08:27:17;;;;;;;3.92;3.54;;;;;;;18.08;44.44;101809.47;;;;-58
2021/03/03 08:30:16;;;;;;;4.25;3.85;;;;;;;18.07;44.42;101807.06;;;;-51
2021/03/03 08:33:17;;;;;;;4.88;3.83;;;;;;;18.06;44.47;101808.75;;;;-51
2021/03/03 08:36:17;;;;;;;4.17;3.77;;;;;;;18.06;44.41;101804.86;;;;-51
2021/03/03 08:39:16;;;;;;;3.92;3.52;;;;;;;18.05;44.45;101808.50;;;;-63
2021/03/03 08:42:17;;;;;;;4.55;3.81;;;;;;;18.05;44.47;101804.56;;;;-63
2021/03/03 08:45:18;;;;;;;4.25;3.68;;;;;;;18.04;44.47;101801.22;;;;-52
2021/03/03 08:48:17;;;;;;;4.01;3.42;;;;;;;18.03;44.51;101801.78;;;;-52
2021/03/03 08:51:17;;;;;;;4.06;3.59;;;;;;;18.03;44.40;101795.41;;;;-50
2021/03/03 08:54:16;;;;;;;3.99;3.60;;;;;;;18.03;44.42;101794.76;;;;-51
2021/03/03 08:57:17;;;;;;;4.05;3.67;;;;;;;18.02;44.48;101790.44;;;;-50
2021/03/03 09:00:17;;;;;;;5.75;3.69;;;;;;;18.01;44.78;101785.97;;;;-46
2021/03/03 09:03:16;;;;;;;4.23;3.83;;;;;;;18.02;45.21;101789.23;;;;-57
2021/03/03 09:06:17;;;;;;;6.09;4.00;;;;;;;18.03;45.25;101786.52;;;;-58
2021/03/03 09:09:17;;;;;;;4.56;4.16;;;;;;;18.04;45.16;101782.80;;;;-49
2021/03/03 09:12:16;;;;;;;4.31;3.91;;;;;;;18.05;45.25;101782.98;;;;-47
2021/03/03 09:15:17;;;;;;;4.68;4.19;;;;;;;18.06;45.22;101785.31;;;;-48
2021/03/03 09:18:17;;;;;;;5.41;4.11;;;;;;;18.07;45.13;101788.28;;;;-47
2021/03/03 09:21:16;;;;;;;4.60;3.87;;;;;;;18.08;45.10;101783.27;;;;-51
2021/03/03 09:24:17;;;;;;;6.53;4.39;;;;;;;18.10;45.11;101784.39;;;;-51
2021/03/03 09:27:16;;;;;;;4.46;4.01;;;;;;;18.14;45.37;101780.88;;;;-59
2021/03/03 09:30:17;;;;;;;6.17;3.99;;;;;;;18.16;45.47;101776.31;;;;-60
2021/03/03 09:33:17;;;;;;;6.31;4.11;;;;;;;18.22;45.58;101777.77;;;;-52
2021/03/03 09:36:16;;;;;;;5.97;3.97;;;;;;;18.30;46.06;101781.12;;;;-51
2021/03/03 09:39:17;;;;;;;5.96;3.77;;;;;;;18.36;45.77;101781.23;;;;-59
2021/03/03 09:42:17;;;;;;;4.37;3.64;;;;;;;18.44;45.71;101780.61;;;;-55
2021/03/03 09:45:16;;;;;;;4.47;4.01;;;;;;;18.46;45.10;101780.67;;;;-56
2021/03/03 09:48:16;;;;;;;4.53;3.72;;;;;;;18.48;45.09;101777.41;;;;-55
2021/03/03 09:51:17;;;;;;;6.16;3.96;;;;;;;18.51;45.15;101771.92;;;;-55
2021/03/03 09:54:16;;;;;;;4.58;3.73;;;;;;;18.53;44.99;101763.91;;;;-54
2021/03/03 09:57:17;;;;;;;4.51;3.81;;;;;;;18.54;44.83;101763.64;;;;-54
2021/03/03 10:00:16;;;;;;;4.81;3.91;;;;;;;18.57;44.81;101762.57;;;;-53
2021/03/03 10:03:16;;;;;;;4.45;3.70;;;;;;;18.63;45.08;101762.12;;;;-52
2021/03/03 10:06:17;;;;;;;5.04;3.55;;;;;;;18.67;45.73;101763.78;;;;-51
2021/03/03 10:09:16;;;;;;;4.30;3.60;;;;;;;18.74;45.75;101762.22;;;;-48
2021/03/03 10:12:17;;;;;;;5.03;3.53;;;;;;;18.81;45.82;101758.39;;;;-55
2021/03/03 10:15:17;;;;;;;4.06;3.50;;;;;;;18.86;45.89;101760.96;;;;-57
2021/03/03 10:18:16;;;;;;;6.05;3.69;;;;;;;18.87;45.83;101756.72;;;;-50
2021/03/03 10:21:16;;;;;;;4.05;3.54;;;;;;;18.92;45.97;101761.31;;;;-51
2021/03/03 10:24:17;;;;;;;3.74;3.43;;;;;;;18.96;45.71;101762.73;;;;-60
2021/03/03 10:27:16;;;;;;;4.19;3.69;;;;;;;19.01;45.71;101765.98;;;;-52
2021/03/03 10:30:16;;;;;;;3.79;3.40;;;;;;;19.07;45.61;101764.26;;;;-50
2021/03/03 10:33:17;;;;;;;4.10;3.70;;;;;;;19.13;45.61;101763.62;;;;-61
2021/03/03 10:36:16;;;;;;;6.57;3.73;;;;;;;19.17;45.63;101763.25;;;;-51
2021/03/03 10:39:17;;;;;;;3.86;3.43;;;;;;;19.20;45.69;101758.31;;;;-64
2021/03/03 10:42:17;;;;;;;4.11;3.69;;;;;;;19.25;45.64;101757.79;;;;-51
2021/03/03 10:45:17;;;;;;;4.33;3.33;;;;;;;19.28;45.75;101759.19;;;;-65
2021/03/03 10:48:17;;;;;;;6.23;3.51;;;;;;;19.30;45.44;101756.48;;;;-64
2021/03/03 10:51:17;;;;;;;4.07;3.48;;;;;;;19.34;45.46;101759.37;;;;-63
2021/03/03 10:54:16;;;;;;;3.79;3.49;;;;;;;19.35;45.34;101753.52;;;;-65
2021/03/03 10:57:17;;;;;;;4.43;3.48;;;;;;;19.38;45.44;101754.03;;;;-62
2021/03/03 11:00:17;;;;;;;4.15;3.59;;;;;;;19.41;45.23;101751.65;;;;-59
2021/03/03 11:03:17;;;;;;;4.59;3.53;;;;;;;19.41;45.04;101753.36;;;;-60
2021/03/03 11:06:17;;;;;;;3.81;3.41;;;;;;;19.40;44.93;101754.17;;;;-59
2021/03/03 11:09:18;;;;;;;3.96;3.14;;;;;;;19.40;44.91;101751.37;;;;-60
2021/03/03 11:12:16;;;;;;;3.87;3.38;;;;;;;19.40;44.81;101743.59;;;;-56
2021/03/03 11:15:17;;;;;;;3.71;3.36;;;;;;;19.40;44.71;101740.19;;;;-55
2021/03/03 11:18:16;;;;;;;3.43;3.13;;;;;;;19.42;44.69;101736.22;;;;-58
2021/03/03 11:21:17;;;;;;;3.73;3.35;;;;;;;19.42;44.64;101732.80;;;;-59
2021/03/03 11:24:17;;;;;;;3.51;3.21;;;;;;;19.44;44.60;101731.56;;;;-57
2021/03/03 11:27:16;;;;;;;3.73;3.37;;;;;;;19.44;44.71;101726.64;;;;-56
2021/03/03 11:30:16;;;;;;;3.32;2.99;;;;;;;19.46;44.60;101720.56;;;;-57
2021/03/03 11:33:17;;;;;;;3.69;3.16;;;;;;;19.46;44.49;101716.45;;;;-57
2021/03/03 11:36:16;;;;;;;3.53;3.23;;;;;;;19.47;44.48;101713.28;;;;-56
2021/03/03 11:39:17;;;;;;;3.84;3.22;;;;;;;19.49;44.50;101707.64;;;;-59
2021/03/03 11:42:17;;;;;;;3.54;3.21;;;;;;;19.51;44.49;101703.19;;;;-59
2021/03/03 11:45:16;;;;;;;3.32;3.01;;;;;;;19.51;44.58;101698.59;;;;-59
2021/03/03 11:48:17;;;;;;;3.91;3.19;;;;;;;19.53;44.53;101693.28;;;;-56
2021/03/03 11:51:17;;;;;;;3.85;3.35;;;;;;;19.54;44.39;101690.20;;;;-57
2021/03/03 11:54:17;;;;;;;4.73;3.36;;;;;;;19.57;44.51;101688.50;;;;-57
2021/03/03 11:57:17;;;;;;;3.15;2.85;;;;;;;19.57;44.43;101683.46;;;;-56
2021/03/03 12:00:17;;;;;;;4.13;3.13;;;;;;;19.58;44.34;101681.69;;;;-57
2021/03/03 12:03:16;;;;;;;3.44;3.07;;;;;;;19.59;44.33;101675.75;;;;-59
2021/03/03 12:06:17;;;;;;;3.78;2.91;;;;;;;19.60;44.32;101674.34;;;;-59
2021/03/03 12:09:17;;;;;;;4.01;3.00;;;;;;;19.62;44.26;101671.13;;;;-59
2021/03/03 12:12:16;;;;;;;3.31;3.01;;;;;;;19.63;44.28;101669.23;;;;-57
2021/03/03 12:15:17;;;;;;;3.28;2.98;;;;;;;19.65;44.24;101662.16;;;;-56
2021/03/03 12:18:16;;;;;;;3.35;3.05;;;;;;;19.67;44.29;101653.35;;;;-57
2021/03/03 12:21:17;;;;;;;3.28;2.92;;;;;;;19.68;44.28;101647.21;;;;-60
2021/03/03 12:24:17;;;;;;;3.56;3.01;;;;;;;19.69;44.19;101643.24;;;;-60
2021/03/03 12:27:16;;;;;;;3.30;3.00;;;;;;;19.70;44.28;101635.50;;;;-55
2021/03/03 12:30:16;;;;;;;3.20;2.90;;;;;;;19.71;44.23;101629.49;;;;-55
2021/03/03 12:33:18;;;;;;;3.21;2.91;;;;;;;19.73;44.21;101627.42;;;;-55
2021/03/03 12:36:16;;;;;;;3.31;3.01;;;;;;;19.73;44.18;101621.08;;;;-57
2021/03/03 12:39:17;;;;;;;3.32;3.02;;;;;;;19.74;44.13;101621.77;;;;-57
2021/03/03 12:42:17;;;;;;;3.19;2.89;;;;;;;19.75;44.23;101620.97;;;;-55
2021/03/03 12:45:16;;;;;;;3.13;2.83;;;;;;;19.74;44.20;101611.03;;;;-55
2021/03/03 12:48:16;;;;;;;3.59;3.07;;;;;;;19.75;44.14;101606.48;;;;-61
2021/03/03 12:51:17;;;;;;;3.86;3.08;;;;;;;19.79;44.64;101607.16;;;;-49
2021/03/03 12:54:16;;;;;;;3.28;2.98;;;;;;;19.81;44.82;101601.19;;;;-49
2021/03/03 12:57:16;;;;;;;3.43;3.01;;;;;;;19.84;44.99;101592.81;;;;-53
2021/03/03 13:00:17;;;;;;;3.51;3.14;;;;;;;19.88;45.19;101590.55;;;;-51
2021/03/03 13:03:16;;;;;;;3.30;3.00;;;;;;;19.94;45.16;101582.67;;;;-54
2021/03/03 13:06:17;;;;;;;5.86;3.19;;;;;;;19.93;44.82;101581.86;;;;-60
2021/03/03 13:09:16;;;;;;;7.01;3.93;;;;;;;19.95;44.82;101575.31;;;;-52
2021/03/03 13:12:16;;;;;;;5.85;3.90;;;;;;;19.99;45.60;101573.37;;;;-54
2021/03/03 13:15:16;;;;;;;5.05;3.70;;;;;;;20.01;45.37;101571.63;;;;-54
2021/03/03 13:18:16;;;;;;;6.17;4.28;;;;;;;20.00;45.03;101567.44;;;;-54
2021/03/03 13:21:16;;;;;;;4.75;3.51;;;;;;;19.98;44.51;101558.87;;;;-55
2021/03/03 13:24:17;;;;;;;4.55;3.37;;;;;;;19.98;44.36;101556.28;;;;-59
2021/03/03 13:27:16;;;;;;;3.98;3.63;;;;;;;19.98;44.30;101550.79;;;;-58
2021/03/03 13:30:16;;;;;;;5.71;3.95;;;;;;;19.97;44.21;101558.92;;;;-59
2021/03/03 13:33:17;;;;;;;5.80;3.79;;;;;;;19.94;44.32;101551.14;;;;-58
2021/03/03 13:36:16;;;;;;;6.86;5.03;;;;;;;19.94;43.95;101547.45;;;;-52
2021/03/03 13:39:17;;;;;;;7.68;4.31;;;;;;;19.95;43.98;101544.23;;;;-51
2021/03/03 13:42:17;;;;;;;5.49;3.94;;;;;;;19.94;43.93;101538.45;;;;-51
2021/03/03 13:45:16;;;;;;;7.31;4.07;;;;;;;19.94;43.99;101536.46;;;;-52
2021/03/03 13:48:16;;;;;;;6.88;3.86;;;;;;;19.94;44.08;101535.36;;;;-57
2021/03/03 13:51:17;;;;;;;4.71;3.93;;;;;;;19.95;44.69;101532.43;;;;-61
2021/03/03 13:54:17;;;;;;;5.05;4.20;;;;;;;20.01;45.21;101531.02;;;;-50
2021/03/03 13:57:16;;;;;;;7.30;4.39;;;;;;;20.02;45.15;101530.70;;;;-52
2021/03/03 14:00:17;;;;;;;9.18;4.87;;;;;;;20.02;45.15;101529.48;;;;-51
2021/03/03 14:03:17;;;;;;;8.49;5.63;;;;;;;20.05;45.22;101526.14;;;;-57
2021/03/03 14:06:16;;;;;;;7.42;5.17;;;;;;;20.06;45.10;101526.96;;;;-58
2021/03/03 14:09:17;;;;;;;12.77;6.14;;;;;;;20.05;44.53;101520.93;;;;-50
2021/03/03 14:12:17;;;;;;;7.14;5.38;;;;;;;20.09;44.54;101516.79;;;;-60
2021/03/03 14:15:16;;;;;;;7.82;5.43;;;;;;;20.08;44.28;101510.73;;;;-51
2021/03/03 14:18:16;;;;;;;9.33;5.07;;;;;;;20.08;44.25;101508.20;;;;-51
2021/03/03 14:21:18;;;;;;;8.64;5.27;;;;;;;20.10;44.32;101504.09;;;;-54
2021/03/03 14:24:16;;;;;;;7.04;5.13;;;;;;;20.14;44.64;101506.21;;;;-47
2021/03/03 14:27:16;;;;;;;7.21;4.81;;;;;;;20.16;44.79;101498.69;;;;-54
2021/03/03 14:30:16;;;;;;;8.11;5.15;;;;;;;20.19;45.06;101496.97;;;;-54
2021/03/03 14:33:17;;;;;;;6.91;4.78;;;;;;;20.22;45.02;101493.68;;;;-62
2021/03/03 14:36:16;;;;;;;6.97;4.91;;;;;;;20.25;45.18;101493.31;;;;-51
2021/03/03 14:39:16;;;;;;;9.96;5.13;;;;;;;20.22;45.38;101492.30;;;;-47
2021/03/03 14:42:16;;;;;;;8.65;5.11;;;;;;;20.24;45.28;101489.41;;;;-47
2021/03/03 14:45:16;;;;;;;8.26;5.12;;;;;;;20.25;45.37;101488.88;;;;-48
2021/03/03 14:48:16;;;;;;;6.95;4.99;;;;;;;20.25;45.01;101484.36;;;;-52
2021/03/03 14:51:17;;;;;;;7.18;5.15;;;;;;;20.23;44.97;101478.05;;;;-58
2021/03/03 14:54:16;;;;;;;9.01;5.66;;;;;;;20.20;44.56;101475.98;;;;-57
2021/03/03 14:57:16;;;;;;;8.67;5.41;;;;;;;20.18;44.49;101466.83;;;;-50
2021/03/03 15:00:17;;;;;;;9.80;5.46;;;;;;;20.15;44.47;101462.95;;;;-56
2021/03/03 15:03:16;;;;;;;7.03;5.13;;;;;;;20.16;44.56;101459.45;;;;-52
2021/03/03 15:06:16;;;;;;;8.06;5.16;;;;;;;20.16;44.57;101459.54;;;;-47
2021/03/03 15:09:16;;;;;;;10.81;5.37;;;;;;;20.14;44.60;101459.58;;;;-56
2021/03/03 15:12:16;;;;;;;8.64;5.56;;;;;;;20.13;44.03;101456.29;;;;-49
2021/03/03 15:15:16;;;;;;;9.69;5.76;;;;;;;20.12;44.27;101453.92;;;;-52
2021/03/03 15:18:16;;;;;;;7.23;5.47;;;;;;;20.11;44.21;101460.84;;;;-48
2021/03/03 15:21:16;;;;;;;6.99;5.21;;;;;;;20.13;44.41;101452.88;;;;-51
2021/03/03 15:24:17;;;;;;;6.19;5.07;;;;;;;20.13;44.32;101462.72;;;;-53
2021/03/03 15:27:17;;;;;;;6.63;5.31;;;;;;;20.12;44.23;101462.22;;;;-58
2021/03/03 15:30:16;;;;;;;6.89;5.09;;;;;;;20.12;44.14;101461.49;;;;-51
2021/03/03 15:33:17;;;;;;;7.33;5.09;;;;;;;20.12;44.33;101455.64;;;;-51
2021/03/03 15:36:16;;;;;;;7.35;5.10;;;;;;;20.17;44.52;101449.89;;;;-51
2021/03/03 15:39:16;;;;;;;6.03;4.79;;;;;;;20.21;44.58;101441.30;;;;-51
2021/03/03 15:42:17;;;;;;;5.37;4.69;;;;;;;20.23;44.67;101433.20;;;;-53
2021/03/03 15:45:16;;;;;;;7.31;4.60;;;;;;;20.25;44.63;101429.50;;;;-52
2021/03/03 15:48:16;;;;;;;6.24;4.53;;;;;;;20.28;44.65;101431.69;;;;-51
2021/03/03 15:51:18;;;;;;;6.95;4.33;;;;;;;20.29;44.86;101430.39;;;;-55
2021/03/03 15:54:16;;;;;;;5.46;4.45;;;;;;;20.29;44.74;101428.06;;;;-54
2021/03/03 15:57:16;;;;;;;6.75;4.57;;;;;;;20.31;44.78;101422.78;;;;-49
2021/03/03 16:00:16;;;;;;;7.29;4.77;;;;;;;20.33;44.77;101419.15;;;;-54
2021/03/03 16:03:16;;;;;;;6.21;4.59;;;;;;;20.34;44.95;101417.23;;;;-52
2021/03/03 16:06:16;;;;;;;5.57;4.59;;;;;;;20.33;45.06;101418.91;;;;-56
2021/03/03 16:09:16;;;;;;;6.13;4.06;;;;;;;20.36;45.09;101415.12;;;;-57
2021/03/03 16:12:16;;;;;;;6.28;4.43;;;;;;;20.34;45.17;101410.15;;;;-56
2021/03/03 16:15:17;;;;;;;6.40;4.44;;;;;;;20.35;45.29;101407.47;;;;-58
2021/03/03 16:18:16;;;;;;;5.03;4.16;;;;;;;20.36;45.58;101406.77;;;;-61
2021/03/03 16:21:16;;;;;;;7.09;4.69;;;;;;;20.33;44.93;101401.81;;;;-51
2021/03/03 16:24:17;;;;;;;6.35;4.42;;;;;;;20.32;44.74;101398.80;;;;-54
2021/03/03 16:27:16;;;;;;;6.86;4.54;;;;;;;20.30;44.48;101400.30;;;;-55
2021/03/03 16:30:16;;;;;;;5.92;4.49;;;;;;;20.28;44.43;101398.72;;;;-56
2021/03/03 16:33:16;;;;;;;5.23;4.15;;;;;;;20.26;44.32;101394.78;;;;-51
2021/03/03 16:36:16;;;;;;;8.21;4.41;;;;;;;20.27;44.72;101394.98;;;;-60
2021/03/03 16:39:16;;;;;;;5.39;4.31;;;;;;;20.33;44.89;101383.66;;;;-59